Time;durP1;ratioP1;P1;durP2;ratioP2;P2;SDS_P1;SDS_P2;PMS_P1;PMS_P2;Temp;Humidity;BMP_temperature;BMP_pressure;BME280_temperature;BME280_humidity;BME280_pressure;Samples;Min_cycle;Max_cycle;Signal;HPM_P1;HPM_P2
2022/02/16 00:00:22;;;;;;;20.58;15.73;;;;;;;;;;4419848;32;19936;-69
2022/02/16 00:02:47;;;;;;;;;;;;;;;;;;4434341;32;20510;-69
2022/02/16 00:05:13;;;;;;;22.15;16.40;;;;;;;;;;4434116;32;19945;-69
2022/02/16 00:07:40;;;;;;;;;;;;;;;;;;4420369;32;20413;-70
2022/02/16 00:10:06;;;;;;;22.80;17.12;;;;;;;;;;4420919;32;20083;-68
2022/02/16 00:12:31;;;;;;;;;;;;;;;;;;4436268;32;20056;-68
2022/02/16 00:14:56;;;;;;;24.65;18.92;;;;;;;;;;4434087;32;19932;-69
2022/02/16 00:17:21;;;;;;;;;;;;;;;;;;4435377;32;20044;-70
2022/02/16 00:19:46;;;;;;;21.67;16.90;;;;;;;;;;4433113;32;19992;-68
2022/02/16 00:22:11;;;;;;;;;;;;;;;;;;4434375;32;20285;-69
2022/02/16 00:24:37;;;;;;;19.00;15.75;;;;;;;;;;4420172;32;20141;-69
2022/02/16 00:27:02;;;;;;;;;;;;;;;;;;4430886;32;20038;-69
2022/02/16 00:29:27;;;;;;;21.67;17.52;;;;;;;;;;4434175;32;20003;-69
2022/02/16 00:31:52;;;;;;;;;;;;;;;;;;4431769;32;20125;-69
2022/02/16 00:34:17;;;;;;;23.27;17.42;;;;;;;;;;4420540;32;19973;-68
2022/02/16 00:36:42;;;;;;;;;;;;;;;;;;4433789;32;20059;-68
2022/02/16 00:39:07;;;;;;;24.73;18.87;;;;;;;;;;4419427;32;19972;-68
2022/02/16 00:41:32;;;;;;;;;;;;;;;;;;4432965;32;20026;-68
2022/02/16 00:43:58;;;;;;;23.87;18.00;;;;;;;;;;4417742;32;20310;-69
2022/02/16 00:46:23;;;;;;;;;;;;;;;;;;4432716;32;20213;-69
2022/02/16 00:48:48;;;;;;;26.40;17.00;;;;;;;;;;4419701;32;19937;-69
2022/02/16 00:51:13;;;;;;;;;;;;;;;;;;4418109;32;20407;-69
2022/02/16 00:53:38;;;;;;;21.25;16.30;;;;;;;;;;4418018;32;20093;-68
2022/02/16 00:56:03;;;;;;;;;;;;;;;;;;4433742;32;20511;-69
2022/02/16 00:58:28;;;;;;;26.37;17.58;;;;;;;;;;4433851;32;19974;-68
2022/02/16 01:00:53;;;;;;;;;;;;;;;;;;4433706;32;20334;-69
2022/02/16 01:03:19;;;;;;;23.38;18.02;;;;;;;;;;4433155;32;19985;-68
2022/02/16 01:05:45;;;;;;;;;;;;;;;;;;4431966;32;20029;-70
2022/02/16 01:08:10;;;;;;;25.83;18.50;;;;;;;;;;4419606;32;19928;-69
2022/02/16 01:10:36;;;;;;;;;;;;;;;;;;4433343;32;20388;-68
2022/02/16 01:13:01;;;;;;;21.17;15.43;;;;;;;;;;4431879;32;19933;-68
2022/02/16 01:15:26;;;;;;;;;;;;;;;;;;4432399;32;20061;-69
2022/02/16 01:17:51;;;;;;;27.17;17.17;;;;;;;;;;4431642;32;19947;-68
2022/02/16 01:20:16;;;;;;;;;;;;;;;;;;4419365;32;20131;-69
2022/02/16 01:22:41;;;;;;;34.92;19.83;;;;;;;;;;4432406;32;19951;-69
2022/02/16 01:25:06;;;;;;;;;;;;;;;;;;4431735;32;20104;-69
2022/02/16 01:27:32;;;;;;;26.00;16.98;;;;;;;;;;4432714;32;19937;-69
2022/02/16 01:29:57;;;;;;;;;;;;;;;;;;4433828;32;20128;-68
2022/02/16 01:32:22;;;;;;;25.50;17.25;;;;;;;;;;4431643;32;19933;-70
2022/02/16 01:34:47;;;;;;;;;;;;;;;;;;4432763;32;20316;-69
2022/02/16 01:37:13;;;;;;;27.33;18.48;;;;;;;;;;4435955;32;20011;-69
2022/02/16 01:39:38;;;;;;;28.55;20.23;;;;;;;;;;4433387;32;20103;-69
2022/02/16 01:42:04;;;;;;;;;;;;;;;;;;4436194;32;20030;-69
2022/02/16 01:44:30;;;;;;;29.60;18.35;;;;;;;;;;4421846;32;20087;-68
2022/02/16 01:47:00;;;;;;;25.27;17.40;;;;;;;;;;4435935;32;20033;-68
2022/02/16 01:49:25;;;;;;;33.10;18.85;;;;;;;;;;4434241;32;20387;-68
2022/02/16 01:51:50;;;;;;;;;;;;;;;;;;4436171;32;20021;-69
2022/02/16 01:54:15;;;;;;;28.92;18.92;;;;;;;;;;4435264;32;19932;-69
2022/02/16 01:56:40;;;;;;;;;;;;;;;;;;4436348;32;20025;-69
2022/02/16 01:59:06;;;;;;;37.80;21.12;;;;;;;;;;4435825;32;19947;-69
2022/02/16 02:01:31;;;;;;;;;;;;;;;;;;4436308;32;20082;-69
2022/02/16 02:03:56;;;;;;;34.15;22.30;;;;;;;;;;4433380;32;20305;-69
2022/02/16 02:06:21;;;;;;;;;;;;;;;;;;4420457;32;20157;-68
2022/02/16 02:08:46;;;;;;;41.37;25.37;;;;;;;;;;4435108;32;19941;-68
2022/02/16 02:11:12;;;;;;;;;;;;;;;;;;4433410;32;20433;-68
2022/02/16 02:13:37;;;;;;;46.35;25.58;;;;;;;;;;4432905;32;20319;-68
2022/02/16 02:16:02;;;;;;;;;;;;;;;;;;4433965;32;20025;-69
2022/02/16 02:18:27;;;;;;;33.58;24.33;;;;;;;;;;4433520;32;20001;-69
2022/02/16 02:20:52;;;;;;;;;;;;;;;;;;4434191;32;20056;-68
2022/02/16 02:23:17;;;;;;;37.58;25.52;;;;;;;;;;4422173;32;20200;-69
2022/02/16 02:25:42;;;;;;;;;;;;;;;;;;4419958;32;20088;-69
2022/02/16 02:28:08;;;;;;;32.95;24.55;;;;;;;;;;4421859;32;19968;-69
2022/02/16 02:30:33;;;;;;;;;;;;;;;;;;4422064;32;20380;-70
2022/02/16 02:32:59;;;;;;;38.67;25.02;;;;;;;;;;4435780;32;19997;-69
2022/02/16 02:35:25;;;;;;;;;;;;;;;;;;4436015;32;20029;-70
2022/02/16 02:37:50;;;;;;;37.03;23.40;;;;;;;;;;4434611;32;20242;-69
2022/02/16 02:40:15;;;;;;;;;;;;;;;;;;4434363;32;20093;-70
2022/02/16 02:42:41;;;;;;;37.63;25.10;;;;;;;;;;4435303;32;19943;-69
2022/02/16 02:45:06;;;;;;;;;;;;;;;;;;4436602;32;20178;-69
2022/02/16 02:47:31;;;;;;;37.70;24.83;;;;;;;;;;4419612;32;19936;-68
2022/02/16 02:49:56;;;;;;;;;;;;;;;;;;4408375;32;20081;-68
2022/02/16 02:52:21;;;;;;;37.15;23.52;;;;;;;;;;4420669;32;20043;-68
2022/02/16 02:54:46;;;;;;;;;;;;;;;;;;4421141;32;20421;-70
2022/02/16 02:57:11;;;;;;;36.38;24.87;;;;;;;;;;4420170;32;19941;-69
2022/02/16 02:59:37;;;;;;;;;;;;;;;;;;4420754;32;20427;-69
2022/02/16 03:02:02;;;;;;;40.78;26.30;;;;;;;;;;4420060;32;20302;-69
2022/02/16 03:04:27;;;;;;;;;;;;;;;;;;4433631;32;20139;-70
2022/02/16 03:06:52;;;;;;;31.83;22.10;;;;;;;;;;4435417;32;19955;-69
2022/02/16 03:09:17;;;;;;;;;;;;;;;;;;4436752;32;20133;-70
2022/02/16 03:11:42;;;;;;;23.58;19.27;;;;;;;;;;4436193;32;19957;-70
2022/02/16 03:14:08;;;;;;;;;;;;;;;;;;4436064;32;20042;-69
2022/02/16 03:16:33;;;;;;;26.45;17.45;;;;;;;;;;4420269;32;20001;-69
2022/02/16 03:18:58;;;;;;;;;;;;;;;;;;4420172;32;20076;-69
2022/02/16 03:21:23;;;;;;;21.98;16.60;;;;;;;;;;4435511;32;19955;-69
2022/02/16 03:23:48;;;;;;;;;;;;;;;;;;4437014;32;20066;-70
2022/02/16 03:26:13;;;;;;;21.77;14.87;;;;;;;;;;4435429;32;19949;-70
2022/02/16 03:28:38;;;;;;;;;;;;;;;;;;4435185;32;20064;-69
2022/02/16 03:31:03;;;;;;;20.85;15.02;;;;;;;;;;4420660;32;19949;-69
2022/02/16 03:33:29;;;;;;;;;;;;;;;;;;4422501;32;20157;-69
2022/02/16 03:35:54;;;;;;;17.48;13.23;;;;;;;;;;4433736;32;19946;-69
2022/02/16 03:38:19;;;;;;;;;;;;;;;;;;4433402;32;20096;-70
2022/02/16 03:40:44;;;;;;;12.90;11.07;;;;;;;;;;4421930;32;19979;-70
2022/02/16 03:43:10;;;;;;;;;;;;;;;;;;4436653;32;20029;-70
2022/02/16 03:45:35;;;;;;;13.40;10.52;;;;;;;;;;4435318;32;20274;-70
2022/02/16 03:48:00;;;;;;;;;;;;;;;;;;4436402;32;20129;-70
2022/02/16 03:50:25;;;;;;;16.87;11.23;;;;;;;;;;4419250;32;20295;-68
2022/02/16 03:52:50;;;;;;;;;;;;;;;;;;4420825;32;20501;-70
2022/02/16 03:55:16;;;;;;;14.57;10.07;;;;;;;;;;4435122;32;20188;-69
2022/02/16 03:57:41;;;;;;;;;;;;;;;;;;4419930;32;20120;-68
2022/02/16 04:00:09;;;;;;;13.98;9.25;;;;;;;;;;4419272;32;19948;-69
2022/02/16 04:02:34;;;;;;;15.23;9.43;;;;;;;;;;4432962;32;20250;-69
2022/02/16 04:04:59;;;;;;;;;;;;;;;;;;4432247;32;20037;-69
2022/02/16 04:07:24;;;;;;;13.05;11.10;;;;;;;;;;4433155;32;19952;-70
2022/02/16 04:09:49;;;;;;;;;;;;;;;;;;4431750;32;20132;-70
2022/02/16 04:12:15;;;;;;;17.00;13.82;;;;;;;;;;4436262;32;20301;-69
2022/02/16 04:14:40;;;;;;;;;;;;;;;;;;4435468;32;20074;-69
2022/02/16 04:17:05;;;;;;;22.05;15.07;;;;;;;;;;4421898;32;19967;-69
2022/02/16 04:19:30;;;;;;;;;;;;;;;;;;4436122;32;20407;-69
2022/02/16 04:21:55;;;;;;;19.77;16.42;;;;;;;;;;4435505;32;19978;-70
2022/02/16 04:24:20;;;;;;;;;;;;;;;;;;4434950;32;20048;-70
2022/02/16 04:26:46;;;;;;;20.92;17.52;;;;;;;;;;4434035;32;19955;-70
2022/02/16 04:29:11;;;;;;;20.62;16.55;;;;;;;;;;4417095;32;20097;-71
2022/02/16 04:31:36;;;;;;;;;;;;;;;;;;4432904;32;20081;-71
2022/02/16 04:34:02;;;;;;;16.87;14.38;;;;;;;;;;4433367;32;19940;-70
2022/02/16 04:36:27;;;;;;;;;;;;;;;;;;4435142;32;20423;-69
2022/02/16 04:38:56;;;;;;;16.83;13.35;;;;;;;;;;4433341;32;19936;-70
2022/02/16 04:41:21;;;;;;;15.57;13.85;;;;;;;;;;4434510;32;20121;-69
2022/02/16 04:43:46;;;;;;;;;;;;;;;;;;4433069;32;20403;-69
2022/02/16 04:46:11;;;;;;;14.10;12.25;;;;;;;;;;4432234;32;19952;-68
2022/02/16 04:48:38;;;;;;;;;;;;;;;;;;4433383;32;20053;-68
2022/02/16 04:51:03;;;;;;;13.93;12.40;;;;;;;;;;4433757;32;19947;-68
2022/02/16 04:53:32;;;;;;;;;;;;;;;;;;4433985;32;20030;-70
2022/02/16 04:55:58;;;;;;;15.05;12.20;;;;;;;;;;4433007;32;19986;-68
2022/02/16 04:58:23;;;;;;;;;;;;;;;;;;4432996;32;20081;-70
2022/02/16 05:00:48;;;;;;;13.20;10.02;;;;;;;;;;4434029;32;20081;-69
2022/02/16 05:03:13;;;;;;;;;;;;;;;;;;4433974;32;20052;-68
2022/02/16 05:05:38;;;;;;;18.65;11.63;;;;;;;;;;4420635;32;19940;-68
2022/02/16 05:08:03;;;;;;;;;;;;;;;;;;4433302;32;20070;-69
2022/02/16 05:10:28;;;;;;;18.33;11.32;;;;;;;;;;4418034;32;19937;-69
2022/02/16 05:12:53;;;;;;;;;;;;;;;;;;4434754;32;20377;-69
2022/02/16 05:15:19;;;;;;;13.88;10.43;;;;;;;;;;4432547;32;19945;-69
2022/02/16 05:17:44;;;;;;;;;;;;;;;;;;4419200;32;20118;-69
2022/02/16 05:20:09;;;;;;;15.40;10.95;;;;;;;;;;4432973;32;19940;-70
2022/02/16 05:22:34;;;;;;;;;;;;;;;;;;4434055;32;20236;-69
2022/02/16 05:24:59;;;;;;;14.95;10.20;;;;;;;;;;4431757;32;20278;-69
2022/02/16 05:27:25;;;;;;;;;;;;;;;;;;4434319;32;20029;-70
2022/02/16 05:29:50;;;;;;;15.00;10.82;;;;;;;;;;4431843;32;19944;-70
2022/02/16 05:32:15;;;;;;;;;;;;;;;;;;4420149;32;20447;-69
2022/02/16 05:34:40;;;;;;;13.77;9.95;;;;;;;;;;4432671;32;19964;-69
2022/02/16 05:37:05;;;;;;;;;;;;;;;;;;4433620;32;20038;-69
2022/02/16 05:39:30;;;;;;;14.07;10.60;;;;;;;;;;4431352;32;20389;-68
2022/02/16 05:41:55;;;;;;;;;;;;;;;;;;4431979;32;20041;-68
2022/02/16 05:44:20;;;;;;;14.70;10.90;;;;;;;;;;4433416;32;20303;-69
2022/02/16 05:46:46;;;;;;;;;;;;;;;;;;4433812;32;20129;-68
2022/02/16 05:49:12;;;;;;;12.73;9.48;;;;;;;;;;4433600;32;19936;-69
2022/02/16 05:51:37;;;;;;;;;;;;;;;;;;4432326;32;20397;-68
2022/02/16 05:54:02;;;;;;;12.40;9.75;;;;;;;;;;4431567;32;20076;-69
2022/02/16 05:56:28;;;;;;;;;;;;;;;;;;4433038;32;20485;-69
2022/02/16 05:58:53;;;;;;;12.82;9.57;;;;;;;;;;4433490;32;19951;-69
2022/02/16 06:01:18;;;;;;;;;;;;;;;;;;4419522;32;20030;-70
2022/02/16 06:03:44;;;;;;;11.80;10.20;;;;;;;;;;4431912;32;19941;-70
2022/02/16 06:06:09;;;;;;;;;;;;;;;;;;4432003;32;20338;-70
2022/02/16 06:08:34;;;;;;;10.88;9.35;;;;;;;;;;4432418;32;19933;-70
2022/02/16 06:11:02;;;;;;;;;;;;;;;;;;4432156;32;20026;-70
2022/02/16 06:13:27;;;;;;;11.38;10.10;;;;;;;;;;4431460;32;19977;-70
2022/02/16 06:15:52;;;;;;;;;;;;;;;;;;4433788;32;20364;-70
2022/02/16 06:18:18;;;;;;;10.60;8.77;;;;;;;;;;4432079;32;19972;-70
2022/02/16 06:20:43;;;;;;;;;;;;;;;;;;4432963;32;20117;-70
2022/02/16 06:23:08;;;;;;;14.23;10.45;;;;;;;;;;4434584;32;19972;-70
2022/02/16 06:25:33;;;;;;;;;;;;;;;;;;4434811;32;20407;-69
2022/02/16 06:28:03;;;;;;;9.18;7.72;;;;;;;;;;4436308;32;19944;-69
2022/02/16 06:30:28;;;;;;;10.82;8.10;;;;;;;;;;4434688;32;20332;-69
2022/02/16 06:32:53;;;;;;;;;;;;;;;;;;4434054;32;20426;-68
2022/02/16 06:35:19;;;;;;;9.65;8.23;;;;;;;;;;4433975;32;20272;-69
2022/02/16 06:37:45;;;;;;;;;;;;;;;;;;4436279;32;20037;-68
2022/02/16 06:40:10;;;;;;;8.82;7.25;;;;;;;;;;4434918;32;20080;-69
2022/02/16 06:42:35;;;;;;;;;;;;;;;;;;4434648;32;20078;-69
2022/02/16 06:45:01;;;;;;;9.32;8.00;;;;;;;;;;4420684;32;19951;-70
2022/02/16 06:47:26;;;;;;;;;;;;;;;;;;4436507;32;20029;-69
2022/02/16 06:49:51;;;;;;;12.57;8.82;;;;;;;;;;4434591;32;19933;-69
2022/02/16 06:52:16;;;;;;;;;;;;;;;;;;4436003;32;20190;-68
2022/02/16 06:54:41;;;;;;;7.20;6.47;;;;;;;;;;4420606;32;19936;-69
2022/02/16 06:57:07;;;;;;;;;;;;;;;;;;4419494;32;20406;-69
2022/02/16 06:59:32;;;;;;;12.00;8.80;;;;;;;;;;4420483;32;20292;-69
2022/02/16 07:01:57;;;;;;;;;;;;;;;;;;4435390;32;20513;-68
2022/02/16 07:04:22;;;;;;;7.70;6.55;;;;;;;;;;4432521;32;19948;-69
2022/02/16 07:06:47;;;;;;;;;;;;;;;;;;4418532;32;20037;-70
2022/02/16 07:09:12;;;;;;;7.68;6.00;;;;;;;;;;4434947;32;19932;-70
2022/02/16 07:11:37;;;;;;;;;;;;;;;;;;4436100;32;20414;-70
2022/02/16 07:14:03;;;;;;;8.57;6.15;;;;;;;;;;4433462;32;20301;-70
2022/02/16 07:16:28;;;;;;;;;;;;;;;;;;4434059;32;20037;-69
2022/02/16 07:18:54;;;;;;;5.53;4.65;;;;;;;;;;4433664;32;20077;-69
2022/02/16 07:21:19;;;;;;;;;;;;;;;;;;4435147;32;20151;-68
2022/02/16 07:23:46;;;;;;;8.73;5.57;;;;;;;;;;4434273;32;19976;-69
2022/02/16 07:26:11;;;;;;;9.93;7.15;;;;;;;;;;4420623;32;20038;-69
2022/02/16 07:28:37;;;;;;;;;;;;;;;;;;4434019;32;20396;-69
2022/02/16 07:31:02;;;;;;;10.45;6.00;;;;;;;;;;4419918;32;19952;-69
2022/02/16 07:33:27;;;;;;;;;;;;;;;;;;4437206;32;20065;-69
2022/02/16 07:35:52;;;;;;;9.57;7.30;;;;;;;;;;4419953;32;19970;-71
2022/02/16 07:38:17;;;;;;;;;;;;;;;;;;4431026;32;20149;-70
2022/02/16 07:40:43;;;;;;;16.60;9.27;;;;;;;;;;4433148;32;19945;-70
2022/02/16 07:43:08;;;;;;;;;;;;;;;;;;4433905;32;20161;-70
2022/02/16 07:45:33;;;;;;;19.65;10.25;;;;;;;;;;4434801;32;19951;-69
2022/02/16 07:48:00;;;;;;;;;;;;;;;;;;4434661;32;20125;-69
2022/02/16 07:50:25;;;;;;;19.48;11.90;;;;;;;;;;4435042;32;19952;-69
2022/02/16 07:52:50;;;;;;;;;;;;;;;;;;4434757;32;20034;-69
2022/02/16 07:55:15;;;;;;;23.87;13.88;;;;;;;;;;4435716;32;19957;-68
2022/02/16 07:57:40;;;;;;;;;;;;;;;;;;4436133;32;20080;-70
2022/02/16 08:00:06;;;;;;;35.42;13.75;;;;;;;;;;4433796;32;19944;-69
2022/02/16 08:02:32;;;;;;;23.52;10.82;;;;;;;;;;4433341;32;20088;-69
2022/02/16 08:04:57;;;;;;;;;;;;;;;;;;4420928;32;20493;-69
2022/02/16 08:07:22;;;;;;;27.62;11.73;;;;;;;;;;4435198;32;19936;-69
2022/02/16 08:09:48;;;;;;;;;;;;;;;;;;4433914;32;20065;-69
2022/02/16 08:12:13;;;;;;;20.60;9.30;;;;;;;;;;4433468;32;19937;-69
2022/02/16 08:14:38;;;;;;;;;;;;;;;;;;4433896;32;20048;-69
2022/02/16 08:17:04;;;;;;;27.30;9.50;;;;;;;;;;4435229;32;19949;-68
2022/02/16 08:19:29;;;;;;;;;;;;;;;;;;4435268;32;20413;-69
2022/02/16 08:21:56;;;;;;;23.67;6.37;;;;;;;;;;4431204;32;19948;-69
2022/02/16 08:24:22;;;;;;;23.75;6.65;;;;;;;;;;4431367;32;20033;-70
2022/02/16 08:26:47;;;;;;;;;;;;;;;;;;4427141;32;20192;-69
2022/02/16 08:29:14;;;;;;;32.30;6.90;;;;;;;;;;4417549;32;19937;-69
2022/02/16 08:31:40;;;;;;;27.00;7.03;;;;;;;;;;4418440;32;20587;-69
2022/02/16 08:34:05;;;;;;;;;;;;;;;;;;4418899;32;20022;-68
2022/02/16 08:36:30;;;;;;;22.52;5.65;;;;;;;;;;4419537;32;19992;-69
2022/02/16 08:38:55;;;;;;;29.75;7.32;;;;;;;;;;4411290;32;20411;-70
2022/02/16 08:41:20;;;;;;;24.60;7.15;;;;;;;;;;4434642;32;20049;-70
2022/02/16 08:43:46;;;;;;;;;;;;;;;;;;4434355;32;20461;-68
2022/02/16 08:46:12;;;;;;;32.58;6.55;;;;;;;;;;4430140;32;19951;-69
2022/02/16 08:48:37;;;;;;;;;;;;;;;;;;4433676;32;20123;-69
2022/02/16 08:51:02;;;;;;;30.37;7.80;;;;;;;;;;4420113;32;19940;-70
2022/02/16 08:53:29;;;;;;;31.90;5.05;;;;;;;;;;4420100;32;20166;-69
2022/02/16 08:55:54;;;;;;;32.30;5.80;;;;;;;;;;4427639;32;20423;-68
2022/02/16 08:58:21;;;;;;;;;;;;;;;;;;4419236;32;20072;-68
2022/02/16 09:00:46;;;;;;;26.30;6.65;;;;;;;;;;4404049;32;20207;-68
2022/02/16 09:03:12;;;;;;;;;;;;;;;;;;4420409;32;20093;-69
2022/02/16 09:05:37;;;;;;;29.87;6.03;;;;;;;;;;4405966;32;20056;-69
2022/02/16 09:08:02;;;;;;;;;;;;;;;;;;4418504;32;20352;-69
2022/02/16 09:10:27;;;;;;;29.23;5.37;;;;;;;;;;4417734;32;20070;-69
2022/02/16 09:12:52;;;;;;;;;;;;;;;;;;4418543;32;20073;-68
2022/02/16 09:15:21;;;;;;;31.50;7.05;;;;;;;;;;4417352;32;19980;-70
2022/02/16 09:17:46;;;;;;;21.25;5.43;;;;;;;;;;4418691;32;20071;-69
2022/02/16 09:20:11;;;;;;;;;;;;;;;;;;4419869;32;20046;-70
2022/02/16 09:22:37;;;;;;;35.40;6.68;;;;;;;;;;4432402;32;19974;-69
2022/02/16 09:25:03;;;;;;;25.15;5.22;;;;;;;;;;4430229;32;20523;-70
2022/02/16 09:27:28;;;;;;;;;;;;;;;;;;4418534;32;20049;-70
2022/02/16 09:29:54;;;;;;;22.33;5.85;;;;;;;;;;4433588;32;19965;-70
2022/02/16 09:32:19;;;;;;;26.50;5.55;;;;;;;;;;4433446;32;20055;-70
2022/02/16 09:34:45;;;;;;;;;;;;;;;;;;4420755;32;20060;-69
2022/02/16 09:37:10;;;;;;;27.17;5.60;;;;;;;;;;4433094;32;20022;-69
2022/02/16 09:39:35;;;;;;;22.35;5.22;;;;;;;;;;4418712;32;20029;-70
2022/02/16 09:42:01;;;;;;;21.73;6.22;;;;;;;;;;4435252;32;20089;-68
2022/02/16 09:44:26;;;;;;;;;;;;;;;;;;4419022;32;20026;-69
2022/02/16 09:46:51;;;;;;;23.95;6.25;;;;;;;;;;4432339;32;20343;-70
2022/02/16 09:49:16;;;;;;;;;;;;;;;;;;4434294;32;20133;-70
2022/02/16 09:51:42;;;;;;;21.75;4.18;;;;;;;;;;4434723;32;20240;-70
2022/02/16 09:54:07;;;;;;;;;;;;;;;;;;4433704;32;20064;-70
2022/02/16 09:56:32;;;;;;;21.45;4.47;;;;;;;;;;4435870;32;20307;-68
2022/02/16 09:58:58;;;;;;;;;;;;;;;;;;4436974;32;20542;-68
2022/02/16 10:01:23;;;;;;;17.33;4.45;;;;;;;;;;4436656;32;19941;-68
2022/02/16 10:03:48;;;;;;;;;;;;;;;;;;4434024;32;20534;-69
2022/02/16 10:06:33;;;;;;;23.33;5.25;;;;;;;;;;4434400;32;19994;-69
2022/02/16 10:08:58;;;;;;;22.20;4.60;;;;;;;;;;4437215;32;20025;-70
2022/02/16 10:11:23;;;;;;;;;;;;;;;;;;4437453;32;20033;-69
2022/02/16 10:13:50;;;;;;;21.35;4.25;;;;;;;;;;4423171;32;20000;-69
2022/02/16 10:16:29;;;;;;;14.93;3.97;;;;;;;;;;4438737;32;20201;-70
2022/02/16 10:18:56;;;;;;;14.60;3.87;;;;;;;;;;4437400;32;20164;-69
2022/02/16 10:21:21;;;;;;;23.15;6.03;;;;;;;;;;4436164;32;20046;-69
2022/02/16 10:23:46;;;;;;;;;;;;;;;;;;4419265;32;20071;-69
2022/02/16 10:26:12;;;;;;;22.52;5.30;;;;;;;;;;4419955;32;20023;-69
2022/02/16 10:28:37;;;;;;;;;;;;;;;;;;4427405;32;20048;-70
2022/02/16 10:31:08;;;;;;;34.45;6.05;;;;;;;;;;4436558;32;19932;-68
2022/02/16 10:33:44;;;;;;;28.33;6.85;;;;;;;;;;4436167;32;20046;-69
2022/02/16 10:36:11;;;;;;;20.98;5.43;;;;;;;;;;4435119;32;20459;-68
2022/02/16 10:38:53;;;;;;;22.40;5.18;;;;;;;;;;4434797;32;20441;-68
2022/02/16 10:41:19;;;;;;;42.10;7.93;;;;;;;;;;4436841;32;20061;-66
2022/02/16 10:43:44;;;;;;;;;;;;;;;;;;4436531;32;20063;-69
2022/02/16 10:46:16;;;;;;;25.52;6.00;;;;;;;;;;4420460;32;19963;-69
2022/02/16 10:48:42;;;;;;;26.40;5.55;;;;;;;;;;4436193;32;20060;-68
2022/02/16 10:51:07;;;;;;;;;;;;;;;;;;4434878;32;20061;-68
2022/02/16 10:53:32;;;;;;;36.80;7.12;;;;;;;;;;4420625;32;20086;-68
2022/02/16 10:55:58;;;;;;;29.27;5.87;;;;;;;;;;4431489;32;20252;-69
2022/02/16 10:58:23;;;;;;;;;;;;;;;;;;4435803;32;20099;-67
2022/02/16 11:00:51;;;;;;;26.73;5.72;;;;;;;;;;4436301;32;19990;-68
2022/02/16 11:03:29;;;;;;;32.17;6.12;;;;;;;;;;4433536;32;20141;-69
2022/02/16 11:05:55;;;;;;;35.20;8.07;;;;;;;;;;4432162;32;20033;-69
2022/02/16 11:08:22;;;;;;;34.10;7.20;;;;;;;;;;4433642;32;20403;-68
2022/02/16 11:10:47;;;;;;;35.15;7.43;;;;;;;;;;4434951;32;20053;-68
2022/02/16 11:13:12;;;;;;;;;;;;;;;;;;4436465;32;20097;-68
2022/02/16 11:15:38;;;;;;;26.98;5.37;;;;;;;;;;4435244;32;19933;-69
2022/02/16 11:18:03;;;;;;;;;;;;;;;;;;4422792;32;20125;-69
2022/02/16 11:20:28;;;;;;;28.87;5.93;;;;;;;;;;4436244;32;19975;-68
2022/02/16 11:22:55;;;;;;;32.50;6.57;;;;;;;;;;4436279;32;20053;-69
2022/02/16 11:25:29;;;;;;;33.90;6.43;;;;;;;;;;4420964;32;20046;-69
2022/02/16 11:27:54;;;;;;;24.27;5.20;;;;;;;;;;4435829;32;20373;-69
2022/02/16 11:30:19;;;;;;;;;;;;;;;;;;4420994;32;20037;-69
2022/02/16 11:32:45;;;;;;;27.87;6.45;;;;;;;;;;4422115;32;19980;-69
2022/02/16 11:35:24;;;;;;;22.15;4.95;;;;;;;;;;4435463;32;20042;-69
2022/02/16 11:38:11;;;;;;;22.33;5.60;;;;;;;;;;4435105;32;20384;-68
2022/02/16 11:40:36;;;;;;;30.67;6.22;;;;;;;;;;4436125;32;20037;-68
2022/02/16 11:43:01;;;;;;;;;;;;;;;;;;4421039;32;20052;-68
2022/02/16 11:45:55;;;;;;;30.37;7.75;;;;;;;;;;4434347;32;19949;-69
2022/02/16 11:48:40;;;;;;;25.70;6.28;;;;;;;;;;4431593;32;20469;-69
2022/02/16 11:51:26;;;;;;;30.30;6.87;;;;;;;;;;4434825;32;20050;-68
2022/02/16 11:53:52;;;;;;;24.77;5.53;;;;;;;;;;4421438;32;20037;-68
2022/02/16 11:56:19;;;;;;;26.62;5.87;;;;;;;;;;4420063;32;20488;-69
2022/02/16 11:58:44;;;;;;;29.15;6.25;;;;;;;;;;4434247;32;20052;-69
2022/02/16 12:01:09;;;;;;;;;;;;;;;;;;4415491;32;20154;-68
2022/02/16 12:03:37;;;;;;;36.90;6.85;;;;;;;;;;4434223;32;19977;-69
2022/02/16 12:06:12;;;;;;;32.55;6.97;;;;;;;;;;4433920;32;20133;-69
2022/02/16 12:08:42;;;;;;;38.67;7.12;;;;;;;;;;4435643;32;20079;-69
2022/02/16 12:11:18;;;;;;;45.20;7.30;;;;;;;;;;4431050;32;20057;-68
2022/02/16 12:14:02;;;;;;;36.40;6.05;;;;;;;;;;4431191;32;20388;-69
2022/02/16 12:16:35;;;;;;;36.97;6.90;;;;;;;;;;4419049;32;20103;-69
2022/02/16 12:19:03;;;;;;;33.88;7.22;;;;;;;;;;4430055;32;20038;-69
2022/02/16 12:21:35;;;;;;;36.40;7.93;;;;;;;;;;4419284;32;20453;-70
2022/02/16 12:24:02;;;;;;;34.58;8.77;;;;;;;;;;4417642;32;20088;-69
2022/02/16 12:26:33;;;;;;;30.40;7.03;;;;;;;;;;4432485;32;20090;-68
2022/02/16 12:28:59;;;;;;;34.92;7.68;;;;;;;;;;4437011;32;20084;-69
2022/02/16 12:31:26;;;;;;;34.55;8.57;;;;;;;;;;4424724;32;20033;-68
2022/02/16 12:34:05;;;;;;;37.17;7.72;;;;;;;;;;4431458;32;20054;-69
2022/02/16 12:36:30;;;;;;;35.78;8.93;;;;;;;;;;4431607;32;20584;-68
2022/02/16 12:38:55;;;;;;;;;;;;;;;;;;4433039;32;20141;-69
2022/02/16 12:41:21;;;;;;;30.48;7.70;;;;;;;;;;4434459;32;20260;-69
2022/02/16 12:43:50;;;;;;;34.95;7.32;;;;;;;;;;4431645;32;20411;-71
2022/02/16 12:46:16;;;;;;;43.92;8.75;;;;;;;;;;4425437;32;20443;-69
2022/02/16 12:48:41;;;;;;;;;;;;;;;;;;4417660;32;20092;-69
2022/02/16 12:51:06;;;;;;;37.67;9.63;;;;;;;;;;4404797;32;19965;-70
2022/02/16 12:53:32;;;;;;;;;;;;;;;;;;4417534;32;20026;-70
2022/02/16 12:55:58;;;;;;;46.72;9.32;;;;;;;;;;4404758;32;20037;-70
2022/02/16 12:58:24;;;;;;;41.63;8.13;;;;;;;;;;4403241;32;20406;-70
2022/02/16 13:00:49;;;;;;;;;;;;;;;;;;4419163;32;20117;-69
2022/02/16 13:03:21;;;;;;;44.58;9.88;;;;;;;;;;4418635;32;19998;-71
2022/02/16 13:05:47;;;;;;;39.92;8.48;;;;;;;;;;4417817;32;20029;-68
2022/02/16 13:08:13;;;;;;;39.00;8.75;;;;;;;;;;4417176;32;20078;-69
2022/02/16 13:10:38;;;;;;;;;;;;;;;;;;4405176;32;20064;-68
2022/02/16 13:13:13;;;;;;;41.45;8.68;;;;;;;;;;4402916;32;20204;-69
2022/02/16 13:15:39;;;;;;;49.72;9.88;;;;;;;;;;4418749;32;20157;-70
2022/02/16 13:18:04;;;;;;;;;;;;;;;;;;4417665;32;20434;-70
2022/02/16 13:20:32;;;;;;;43.10;9.95;;;;;;;;;;4403664;32;19974;-69
2022/02/16 13:22:59;;;;;;;43.97;10.68;;;;;;;;;;4404347;32;20084;-69
2022/02/16 13:25:25;;;;;;;51.78;10.77;;;;;;;;;;4418833;32;20051;-69
2022/02/16 13:27:50;;;;;;;43.03;9.95;;;;;;;;;;4418391;32;20332;-70
2022/02/16 13:30:16;;;;;;;;;;;;;;;;;;4417483;32;20034;-70
2022/02/16 13:32:43;;;;;;;62.42;11.23;;;;;;;;;;4418059;32;19945;-70
2022/02/16 13:35:12;;;;;;;50.28;10.05;;;;;;;;;;4417936;32;20056;-69
2022/02/16 13:37:53;;;;;;;47.03;9.73;;;;;;;;;;4417422;32;20034;-68
2022/02/16 13:40:18;;;;;;;56.78;9.85;;;;;;;;;;4390421;32;20066;-70
2022/02/16 13:42:43;;;;;;;;;;;;;;;;;;4417466;32;20080;-68
2022/02/16 13:45:08;;;;;;;43.28;9.13;;;;;;;;;;4404571;32;19973;-69
2022/02/16 13:47:34;;;;;;;43.65;9.88;;;;;;;;;;4417895;32;20051;-70
2022/02/16 13:49:59;;;;;;;;;;;;;;;;;;4417162;32;20161;-71
2022/02/16 13:52:34;;;;;;;59.03;11.35;;;;;;;;;;4416819;32;20247;-69
2022/02/16 13:55:00;;;;;;;58.43;9.23;;;;;;;;;;4417441;32;20053;-69
2022/02/16 13:57:29;;;;;;;42.90;9.60;;;;;;;;;;4416133;32;20085;-70
2022/02/16 13:59:59;;;;;;;53.15;11.48;;;;;;;;;;4415971;32;20426;-70
2022/02/16 14:02:24;;;;;;;52.33;10.52;;;;;;;;;;4415922;32;20376;-69
2022/02/16 14:04:50;;;;;;;;;;;;;;;;;;4418219;32;20064;-70
2022/02/16 14:07:15;;;;;;;47.95;11.25;;;;;;;;;;4403924;32;19991;-69
2022/02/16 14:09:40;;;;;;;;;;;;;;;;;;4416307;32;20142;-69
2022/02/16 14:12:05;;;;;;;45.47;10.63;;;;;;;;;;4418209;32;19943;-70
2022/02/16 14:14:31;;;;;;;50.30;11.35;;;;;;;;;;4416225;32;20382;-69
2022/02/16 14:16:56;;;;;;;;;;;;;;;;;;4417483;32;20093;-68
2022/02/16 14:19:24;;;;;;;60.58;11.27;;;;;;;;;;4418024;32;19937;-69
2022/02/16 14:21:54;;;;;;;64.28;12.95;;;;;;;;;;4415658;32;20125;-69
2022/02/16 14:24:20;;;;;;;57.28;10.88;;;;;;;;;;4416621;32;20052;-70
2022/02/16 14:26:45;;;;;;;;;;;;;;;;;;4428778;32;20350;-69
2022/02/16 14:29:10;;;;;;;49.85;11.50;;;;;;;;;;4432885;32;19947;-69
2022/02/16 14:31:36;;;;;;;;;;;;;;;;;;4431781;32;20121;-69
2022/02/16 14:34:01;;;;;;;64.75;11.65;;;;;;;;;;4432781;32;20123;-68
2022/02/16 14:36:26;;;;;;;;;;;;;;;;;;4432205;32;20104;-70
2022/02/16 14:38:52;;;;;;;64.28;11.55;;;;;;;;;;4431520;32;19936;-70
2022/02/16 14:41:17;;;;;;;58.58;11.18;;;;;;;;;;4417836;32;20052;-67
2022/02/16 14:43:42;;;;;;;;;;;;;;;;;;4434241;32;20074;-68
2022/02/16 14:46:08;;;;;;;63.05;11.57;;;;;;;;;;4435367;32;19989;-70
2022/02/16 14:48:33;;;;;;;49.38;11.30;;;;;;;;;;4435002;32;20423;-69
2022/02/16 14:50:58;;;;;;;;;;;;;;;;;;4434562;32;20133;-69
2022/02/16 14:53:23;;;;;;;46.20;10.50;;;;;;;;;;4434460;32;19962;-69
2022/02/16 14:55:50;;;;;;;63.13;12.65;;;;;;;;;;4436040;32;20318;-69
2022/02/16 14:58:16;;;;;;;51.60;11.43;;;;;;;;;;4436794;32;20033;-69
2022/02/16 15:00:41;;;;;;;;;;;;;;;;;;4434088;32;20050;-69
2022/02/16 15:03:08;;;;;;;83.40;13.48;;;;;;;;;;4434250;32;20282;-69
2022/02/16 15:05:33;;;;;;;53.97;10.95;;;;;;;;;;4421740;32;20057;-69
2022/02/16 15:07:58;;;;;;;;;;;;;;;;;;4421097;32;20056;-69